createdAt,value
2017-08-15T00:02:13.481Z,5.90
2017-08-15T00:04:41.049Z,5.57
2017-08-15T00:07:08.605Z,6.03
2017-08-15T00:09:36.175Z,6.15
2017-08-15T00:12:03.725Z,5.68
2017-08-15T00:14:31.313Z,5.68
2017-08-15T00:16:58.880Z,6.03
2017-08-15T00:19:26.456Z,6.07
2017-08-15T00:21:53.999Z,6.30
2017-08-15T00:24:21.561Z,6.77
2017-08-15T00:26:49.116Z,7.27
2017-08-15T00:29:16.700Z,5.40
2017-08-15T00:31:44.229Z,6.43
2017-08-15T00:34:11.785Z,6.03
2017-08-15T00:36:39.362Z,5.05
2017-08-15T00:39:06.914Z,6.00
2017-08-15T00:41:34.469Z,5.85
2017-08-15T00:44:02.041Z,5.45
2017-08-15T00:46:29.653Z,5.93
2017-08-15T00:48:57.200Z,5.68
2017-08-15T00:51:24.804Z,7.35
2017-08-15T00:53:53.300Z,6.75
2017-08-15T00:56:20.890Z,5.22
2017-08-15T00:58:49.186Z,4.45
2017-08-15T01:01:16.720Z,5.65
2017-08-15T01:03:45.055Z,5.45
2017-08-15T01:06:12.622Z,5.15
2017-08-15T01:08:40.182Z,5.15
2017-08-15T01:11:07.794Z,5.40
2017-08-15T01:13:38.378Z,4.90
2017-08-15T01:16:06.729Z,5.28
2017-08-15T01:18:35.046Z,5.35
2017-08-15T01:21:02.582Z,5.90
2017-08-15T01:23:30.129Z,5.40
2017-08-15T01:25:57.693Z,5.65
2017-08-15T01:28:26.087Z,5.25
2017-08-15T01:30:53.657Z,4.65
2017-08-15T01:33:21.968Z,5.03
2017-08-15T01:35:49.556Z,4.57
2017-08-15T01:38:17.104Z,4.80
2017-08-15T01:40:45.004Z,5.10
2017-08-15T01:43:12.551Z,4.10
2017-08-15T01:45:40.096Z,4.65
2017-08-15T01:48:07.671Z,4.35
2017-08-15T01:50:35.229Z,3.80
2017-08-15T01:53:02.802Z,4.80
2017-08-15T01:55:30.344Z,5.65
2017-08-15T01:57:57.908Z,4.80
2017-08-15T02:00:25.437Z,4.75
2017-08-15T02:02:53.007Z,4.50
2017-08-15T02:05:20.555Z,5.18
2017-08-15T02:07:48.106Z,5.18
2017-08-15T02:10:15.670Z,4.40
2017-08-15T02:12:43.252Z,5.05
2017-08-15T02:15:10.837Z,4.93
2017-08-15T02:17:39.173Z,4.28
2017-08-15T02:20:06.734Z,4.90
2017-08-15T02:22:34.289Z,4.30
2017-08-15T02:25:01.866Z,5.00
2017-08-15T02:27:29.421Z,4.15
2017-08-15T02:29:56.960Z,4.72
2017-08-15T02:32:25.274Z,4.43
2017-08-15T02:34:52.818Z,5.00
2017-08-15T02:37:20.405Z,3.72
2017-08-15T02:39:47.944Z,4.65
2017-08-15T02:42:15.495Z,5.40
2017-08-15T02:44:43.817Z,4.30
2017-08-15T02:47:11.723Z,3.83
2017-08-15T02:49:40.430Z,4.20
2017-08-15T02:52:08.734Z,4.40
2017-08-15T02:54:37.097Z,3.65
2017-08-15T02:57:05.428Z,3.90
2017-08-15T02:59:33.013Z,3.92
2017-08-15T03:02:00.743Z,4.47
2017-08-15T03:04:28.302Z,4.53
2017-08-15T03:06:55.834Z,4.32
2017-08-15T03:09:23.389Z,3.90
2017-08-15T03:11:50.918Z,4.85
2017-08-15T03:14:18.469Z,4.32
2017-08-15T03:16:46.047Z,4.18
2017-08-15T03:19:13.606Z,4.07
2017-08-15T03:21:41.153Z,4.62
2017-08-15T03:24:08.700Z,3.87
2017-08-15T03:26:37.036Z,4.00
2017-08-15T03:29:05.356Z,4.40
2017-08-15T03:31:33.204Z,4.50
2017-08-15T03:34:00.743Z,4.45
2017-08-15T03:36:28.297Z,4.28
2017-08-15T03:38:55.856Z,4.20
2017-08-15T03:41:23.423Z,3.83
2017-08-15T03:43:50.981Z,4.30
2017-08-15T03:46:19.346Z,3.50
2017-08-15T03:48:47.204Z,3.95
2017-08-15T03:51:14.756Z,4.10
2017-08-15T03:53:42.323Z,3.95
2017-08-15T03:56:09.855Z,4.07
2017-08-15T03:58:37.379Z,3.67
2017-08-15T04:01:05.702Z,4.95
2017-08-15T04:03:33.239Z,4.30
2017-08-15T04:06:00.823Z,3.75
2017-08-15T04:08:28.380Z,3.90
2017-08-15T04:10:55.934Z,4.70
2017-08-15T04:13:23.492Z,3.85
2017-08-15T04:15:51.821Z,4.53
2017-08-15T04:18:19.371Z,4.22
2017-08-15T04:20:46.910Z,4.10
2017-08-15T04:23:14.490Z,4.45
2017-08-15T04:25:42.053Z,5.15
2017-08-15T04:28:09.598Z,3.90
2017-08-15T04:30:37.152Z,4.07
2017-08-15T04:33:05.477Z,4.78
2017-08-15T04:35:33.086Z,4.80
2017-08-15T04:38:00.870Z,4.62
2017-08-15T04:40:29.194Z,4.50
2017-08-15T04:42:56.746Z,4.30
2017-08-15T04:45:24.311Z,3.80
2017-08-15T04:47:51.869Z,3.80
2017-08-15T04:50:19.443Z,3.83
2017-08-15T04:52:47.037Z,4.15
2017-08-15T04:55:14.602Z,4.10
2017-08-15T04:57:42.153Z,4.43
2017-08-15T05:00:09.729Z,4.30
2017-08-15T05:02:37.283Z,4.22
2017-08-15T05:05:04.834Z,4.62
2017-08-15T05:07:32.392Z,4.30
2017-08-15T05:09:59.944Z,4.65
2017-08-15T05:12:28.281Z,5.22
2017-08-15T05:14:55.874Z,5.72
2017-08-15T05:17:24.221Z,5.30
2017-08-15T05:19:51.763Z,4.60
2017-08-15T05:22:19.649Z,6.85
2017-08-15T05:24:47.207Z,5.20
2017-08-15T05:27:14.751Z,4.97
2017-08-15T05:29:42.300Z,4.47
2017-08-15T05:32:09.855Z,5.23
2017-08-15T05:34:37.400Z,5.07
2017-08-15T05:37:04.955Z,4.90
2017-08-15T05:39:33.588Z,3.97
2017-08-15T05:42:02.022Z,4.63
2017-08-15T05:44:29.615Z,4.77
2017-08-15T05:46:57.150Z,4.67
2017-08-15T05:49:24.675Z,4.50
2017-08-15T05:51:52.243Z,4.60
2017-08-15T05:54:19.795Z,4.07
2017-08-15T05:56:48.121Z,4.00
2017-08-15T05:59:15.655Z,4.17
2017-08-15T06:01:43.239Z,3.80
2017-08-15T06:04:10.803Z,5.10
2017-08-15T06:06:38.395Z,6.23
2017-08-15T06:09:06.363Z,3.73
2017-08-15T06:11:33.918Z,3.50
2017-08-15T06:14:01.669Z,6.00
2017-08-15T06:19:06.432Z,4.00
2017-08-15T06:21:33.992Z,4.03
2017-08-15T06:24:01.726Z,4.10
2017-08-15T06:26:29.287Z,5.40
2017-08-15T06:28:57.607Z,3.80
2017-08-15T06:31:25.148Z,3.80
2017-08-15T06:33:52.759Z,3.37
2017-08-15T06:36:20.322Z,3.50
2017-08-15T06:38:47.869Z,3.13
2017-08-15T06:41:15.447Z,2.90
2017-08-15T06:43:43.005Z,5.10
2017-08-15T06:46:10.563Z,3.27
2017-08-15T06:48:38.130Z,3.20
2017-08-15T06:51:05.962Z,4.10
2017-08-15T06:53:34.269Z,3.70
2017-08-15T06:56:01.809Z,3.33
2017-08-15T06:58:30.158Z,3.57
2017-08-15T07:00:57.693Z,3.60
2017-08-15T07:03:25.272Z,4.17
2017-08-15T07:05:52.813Z,3.53
2017-08-15T07:08:20.371Z,3.60
2017-08-15T07:10:47.914Z,3.40
2017-08-15T07:13:15.505Z,3.17
2017-08-15T07:15:43.088Z,3.93
2017-08-15T07:18:10.624Z,4.20
2017-08-15T07:20:39.351Z,4.10
2017-08-15T07:23:06.906Z,2.90
2017-08-15T07:25:34.460Z,3.67
2017-08-15T07:28:02.050Z,3.70
2017-08-15T07:30:32.300Z,4.63
2017-08-15T07:33:00.734Z,4.17
2017-08-15T07:35:28.289Z,2.70
2017-08-15T07:37:55.884Z,3.70
2017-08-15T07:40:23.997Z,3.03
2017-08-15T07:42:51.648Z,4.60
2017-08-15T07:45:19.213Z,3.60
2017-08-15T07:47:46.755Z,3.83
2017-08-15T07:50:17.490Z,3.77
2017-08-15T07:52:46.025Z,3.57
2017-08-15T07:55:14.382Z,4.53
2017-08-15T07:57:41.959Z,3.83
2017-08-15T08:00:11.011Z,3.70
2017-08-15T08:02:38.573Z,3.63
2017-08-15T08:05:06.427Z,4.00
2017-08-15T08:07:34.740Z,4.47
2017-08-15T08:10:02.306Z,4.60
2017-08-15T08:12:29.821Z,4.00
2017-08-15T08:14:58.198Z,3.60
2017-08-15T08:17:26.741Z,3.87
2017-08-15T08:19:55.168Z,4.90
2017-08-15T08:22:23.591Z,3.90
2017-08-15T08:24:51.178Z,4.10
2017-08-15T08:27:18.766Z,4.03
2017-08-15T08:29:46.432Z,4.00
2017-08-15T08:32:14.010Z,4.23
2017-08-15T08:34:42.356Z,4.17
2017-08-15T08:37:09.893Z,4.13
2017-08-15T08:39:37.458Z,4.63
2017-08-15T08:42:04.983Z,4.40
2017-08-15T08:44:32.511Z,4.10
2017-08-15T08:47:00.066Z,3.40
2017-08-15T08:49:27.596Z,3.30
2017-08-15T08:51:55.146Z,4.27
2017-08-15T08:54:22.692Z,3.80
2017-08-15T08:56:50.351Z,3.93
2017-08-15T08:59:17.892Z,3.97
2017-08-15T09:01:45.452Z,4.07
2017-08-15T09:04:13.008Z,3.67
2017-08-15T09:06:40.583Z,4.80
2017-08-15T09:09:08.148Z,3.90
2017-08-15T09:11:35.704Z,4.10
2017-08-15T09:14:04.013Z,3.97
2017-08-15T09:16:31.570Z,3.70
2017-08-15T09:18:59.114Z,3.50
2017-08-15T09:21:27.437Z,4.00
2017-08-15T09:23:55.019Z,3.80
2017-08-15T09:26:23.338Z,5.33
2017-08-15T09:28:57.438Z,5.13
2017-08-15T09:31:26.649Z,5.43
2017-08-15T09:33:54.186Z,4.13
2017-08-15T09:36:21.734Z,3.80
2017-08-15T09:38:49.294Z,4.20
2017-08-15T09:41:16.818Z,3.70
2017-08-15T09:43:44.388Z,4.67
2017-08-15T09:46:11.910Z,3.40
2017-08-15T09:48:39.454Z,4.20
2017-08-15T09:51:06.981Z,3.87
2017-08-15T09:53:34.519Z,4.33
2017-08-15T09:56:03.875Z,3.63
2017-08-15T09:58:37.162Z,4.67
2017-08-15T10:01:04.701Z,4.07
2017-08-15T10:03:32.995Z,7.90
2017-08-15T10:06:00.585Z,4.00
2017-08-15T10:08:28.141Z,4.00
2017-08-15T10:10:55.694Z,4.57
2017-08-15T10:13:23.234Z,3.47
2017-08-15T10:15:51.760Z,4.60
2017-08-15T10:18:19.288Z,3.50
2017-08-15T10:20:47.171Z,4.63
2017-08-15T10:23:15.536Z,4.20
2017-08-15T10:25:43.872Z,3.63
2017-08-15T10:28:11.401Z,4.17
2017-08-15T10:30:38.971Z,4.30
2017-08-15T10:33:06.521Z,4.67
2017-08-15T10:35:34.891Z,4.57
2017-08-15T10:38:02.449Z,3.80
2017-08-15T10:40:30.785Z,3.53
2017-08-15T10:42:58.581Z,3.63
2017-08-15T10:45:26.135Z,4.03
2017-08-15T10:47:53.688Z,3.80
2017-08-15T10:50:21.210Z,3.80
2017-08-15T10:52:49.503Z,4.37
2017-08-15T10:55:17.787Z,3.80
2017-08-15T10:57:46.094Z,3.30
2017-08-15T11:00:13.613Z,4.07
2017-08-15T11:02:41.152Z,3.33
2017-08-15T11:05:08.687Z,3.20
2017-08-15T11:07:36.245Z,4.33
2017-08-15T11:10:03.794Z,3.70
2017-08-15T11:12:31.362Z,4.30
2017-08-15T11:14:58.872Z,3.67
2017-08-15T11:17:26.448Z,3.43
2017-08-15T11:19:53.989Z,4.10
2017-08-15T11:22:22.456Z,4.00
2017-08-15T11:24:50.016Z,4.20
2017-08-15T11:27:17.551Z,3.70
2017-08-15T11:29:45.110Z,4.33
2017-08-15T11:32:13.569Z,4.07
2017-08-15T11:34:41.123Z,4.07
2017-08-15T11:37:08.663Z,4.30
2017-08-15T11:39:36.220Z,4.03
2017-08-15T11:42:04.341Z,3.73
2017-08-15T11:44:31.894Z,3.50
2017-08-15T11:46:59.425Z,3.80
2017-08-15T11:49:26.986Z,3.60
2017-08-15T11:51:54.514Z,4.63
2017-08-15T11:54:24.174Z,4.57
2017-08-15T11:56:51.715Z,6.33
2017-08-15T11:59:19.293Z,3.80
2017-08-15T12:01:46.829Z,3.57
2017-08-15T12:04:14.389Z,3.10
2017-08-15T12:06:41.949Z,3.23
2017-08-15T12:09:09.492Z,3.43
2017-08-15T12:11:37.126Z,3.87
2017-08-15T12:14:05.695Z,3.63
2017-08-15T12:16:34.007Z,3.20
2017-08-15T12:19:03.168Z,4.63
2017-08-15T12:21:31.482Z,3.43
2017-08-15T12:23:59.013Z,3.17
2017-08-15T12:26:27.347Z,3.57
2017-08-15T12:28:55.007Z,3.10
2017-08-15T12:31:22.559Z,3.10
2017-08-15T12:33:50.125Z,3.30
2017-08-15T12:36:17.704Z,3.50
2017-08-15T12:38:45.241Z,2.93
2017-08-15T12:41:12.789Z,4.23
2017-08-15T12:43:40.344Z,3.40
2017-08-15T12:46:07.901Z,3.70
2017-08-15T12:48:36.236Z,3.20
2017-08-15T12:51:03.876Z,3.23
2017-08-15T12:53:31.457Z,3.30
2017-08-15T12:55:59.010Z,3.80
2017-08-15T12:58:26.562Z,3.67
2017-08-15T13:00:54.853Z,3.27
2017-08-15T13:03:23.170Z,3.00
2017-08-15T13:05:50.721Z,3.00
2017-08-15T13:08:18.272Z,3.30
2017-08-15T13:10:45.810Z,3.27
2017-08-15T13:13:14.125Z,3.20
2017-08-15T13:15:41.660Z,3.30
2017-08-15T13:18:09.208Z,3.53
2017-08-15T13:20:36.766Z,3.10
2017-08-15T13:23:04.301Z,3.47
2017-08-15T13:25:33.775Z,2.90
2017-08-15T13:28:01.319Z,3.40
2017-08-15T13:30:28.919Z,3.30
2017-08-15T13:32:56.472Z,3.50
2017-08-15T13:35:24.042Z,3.47
2017-08-15T13:37:53.594Z,2.90
2017-08-15T13:40:23.746Z,2.97
2017-08-15T13:42:52.286Z,3.10
2017-08-15T13:45:19.866Z,2.90
2017-08-15T13:47:47.426Z,2.90
2017-08-15T13:50:15.062Z,3.00
2017-08-15T13:52:42.602Z,3.07
2017-08-15T13:55:10.327Z,3.30
2017-08-15T13:57:37.989Z,2.73
2017-08-15T14:00:05.549Z,2.77
2017-08-15T14:02:33.192Z,2.60
2017-08-15T14:05:00.781Z,2.93
2017-08-15T14:07:28.344Z,2.80
2017-08-15T14:09:55.928Z,3.50
2017-08-15T14:15:00.665Z,2.80
2017-08-15T14:17:29.057Z,3.30
2017-08-15T14:19:57.587Z,2.70
2017-08-15T14:22:25.917Z,3.57
2017-08-15T14:24:53.454Z,2.80
2017-08-15T14:27:24.068Z,3.47
2017-08-15T14:29:52.600Z,3.10
2017-08-15T14:32:20.559Z,3.17
2017-08-15T14:34:51.406Z,3.47
2017-08-15T14:37:18.973Z,3.10
2017-08-15T14:39:46.523Z,2.70
2017-08-15T14:42:14.050Z,3.87
2017-08-15T14:44:41.606Z,2.90
2017-08-15T14:47:09.141Z,2.83
2017-08-15T14:49:36.705Z,3.90
2017-08-15T14:52:04.228Z,3.17
2017-08-15T14:54:31.788Z,3.03
2017-08-15T14:57:00.078Z,5.70
2017-08-15T14:59:29.588Z,3.33
2017-08-15T15:01:57.123Z,2.60
2017-08-15T15:04:24.674Z,3.30
2017-08-15T15:06:52.202Z,2.83
2017-08-15T15:09:19.736Z,3.10
2017-08-15T15:11:48.058Z,3.80
2017-08-15T15:14:15.632Z,3.43
2017-08-15T15:16:43.154Z,3.37
2017-08-15T15:19:10.718Z,3.20
2017-08-15T15:21:38.261Z,3.03
2017-08-15T15:24:06.597Z,3.40
2017-08-15T15:26:34.113Z,4.00
2017-08-15T15:29:02.435Z,3.03
2017-08-15T15:31:29.981Z,3.03
2017-08-15T15:33:57.517Z,3.37
2017-08-15T15:36:25.852Z,2.97
2017-08-15T15:38:53.397Z,3.10
2017-08-15T15:41:20.955Z,3.50
2017-08-15T15:43:48.487Z,3.77
2017-08-15T15:46:16.028Z,3.23
2017-08-15T15:48:44.341Z,3.30
2017-08-15T15:51:12.666Z,4.03
2017-08-15T15:53:40.208Z,3.87
2017-08-15T15:56:07.772Z,3.67
2017-08-15T15:58:35.297Z,3.73
2017-08-15T16:01:02.820Z,3.23
2017-08-15T16:03:30.376Z,3.90
2017-08-15T16:05:57.916Z,3.73
2017-08-15T16:08:26.239Z,3.93
2017-08-15T16:10:53.788Z,4.10
2017-08-15T16:13:21.366Z,3.97
2017-08-15T16:15:48.922Z,3.30
2017-08-15T16:18:17.491Z,3.97
2017-08-15T16:20:45.026Z,3.37
2017-08-15T16:23:12.620Z,3.70
2017-08-15T16:25:40.178Z,3.27
2017-08-15T16:28:08.559Z,3.53
2017-08-15T16:30:36.887Z,3.30
2017-08-15T16:33:04.445Z,4.80
2017-08-15T16:35:32.910Z,4.37
2017-08-15T16:38:00.541Z,3.83
2017-08-15T16:40:28.098Z,3.63
2017-08-15T16:42:55.666Z,4.07
2017-08-15T16:45:25.257Z,3.70
2017-08-15T16:47:52.777Z,3.63
2017-08-15T16:50:20.361Z,6.60
2017-08-15T16:52:47.922Z,4.40
2017-08-15T16:55:15.493Z,5.07
2017-08-15T16:57:43.026Z,4.60
2017-08-15T17:00:10.568Z,5.07
2017-08-15T17:02:38.125Z,4.20
2017-08-15T17:05:05.687Z,4.10
2017-08-15T17:07:33.224Z,3.67
2017-08-15T17:10:00.818Z,4.13
2017-08-15T17:12:28.358Z,4.27
2017-08-15T17:14:55.928Z,3.63
2017-08-15T17:17:23.516Z,4.00
2017-08-15T17:19:51.840Z,6.70
2017-08-15T17:22:19.421Z,8.23
2017-08-15T17:24:46.958Z,11.00
2017-08-15T17:27:15.334Z,8.50
2017-08-15T17:29:43.668Z,13.33
2017-08-15T17:32:11.313Z,11.43
2017-08-15T17:34:38.869Z,15.57
2017-08-15T17:37:06.530Z,13.90
2017-08-15T17:39:34.117Z,19.33
2017-08-15T17:42:01.701Z,13.13
2017-08-15T17:44:29.273Z,13.97
2017-08-15T17:46:56.901Z,10.80
2017-08-15T17:49:24.465Z,14.80
2017-08-15T17:51:52.022Z,9.33
2017-08-15T17:54:19.603Z,14.00
2017-08-15T17:56:47.224Z,10.13
2017-08-15T17:59:15.576Z,14.50
2017-08-15T18:01:43.137Z,7.97
2017-08-15T18:04:10.734Z,10.83
2017-08-15T18:06:39.057Z,7.40
2017-08-15T18:09:06.600Z,11.80
2017-08-15T18:11:34.938Z,12.27
2017-08-15T18:14:02.505Z,14.10
2017-08-15T18:16:30.077Z,11.43
2017-08-15T18:18:57.641Z,10.53
2017-08-15T18:21:26.265Z,12.10
2017-08-15T18:23:54.615Z,10.30
2017-08-15T18:26:22.217Z,8.33
2017-08-15T18:28:50.636Z,9.13
2017-08-15T18:31:20.096Z,8.63
2017-08-15T18:33:47.761Z,14.17
2017-08-15T18:36:16.119Z,8.37
2017-08-15T18:38:43.672Z,9.20
2017-08-15T18:41:18.074Z,9.37
2017-08-15T18:43:47.398Z,11.43
2017-08-15T18:46:15.772Z,9.63
2017-08-15T18:48:43.440Z,17.77
2017-08-15T18:51:11.452Z,8.90
2017-08-15T18:53:39.352Z,14.43
2017-08-15T18:56:07.659Z,10.63
2017-08-15T18:58:35.236Z,11.03
2017-08-15T19:01:02.811Z,14.60
2017-08-15T19:03:31.123Z,8.67
2017-08-15T19:05:58.665Z,11.23
2017-08-15T19:08:26.232Z,8.07
2017-08-15T19:10:53.776Z,10.73
2017-08-15T19:13:23.191Z,11.10
2017-08-15T19:15:50.924Z,9.07
2017-08-15T19:18:18.808Z,8.20
2017-08-15T19:20:46.482Z,7.07
2017-08-15T19:23:14.157Z,6.53
2017-08-15T19:25:43.341Z,9.90
2017-08-15T19:28:10.896Z,11.07
2017-08-15T19:30:38.530Z,7.20
2017-08-15T19:33:07.815Z,7.27
2017-08-15T19:35:36.616Z,7.30
2017-08-15T19:38:04.298Z,11.50
2017-08-15T19:40:31.894Z,13.30
2017-08-15T19:42:59.437Z,10.30
2017-08-15T19:45:28.085Z,11.93
2017-08-15T19:47:55.718Z,9.30
2017-08-15T19:50:23.316Z,11.10
2017-08-15T19:52:51.650Z,9.27
2017-08-15T19:55:19.859Z,8.00
2017-08-15T19:57:48.456Z,7.87
2017-08-15T20:00:16.104Z,7.60
2017-08-15T20:02:44.243Z,8.07
2017-08-15T20:05:12.135Z,9.53
2017-08-15T20:07:40.537Z,10.87
2017-08-15T20:10:08.638Z,10.10
2017-08-15T20:12:36.218Z,7.93
2017-08-15T20:15:03.777Z,7.00
2017-08-15T20:17:31.482Z,7.23
2017-08-15T20:19:59.708Z,14.47
2017-08-15T20:22:27.324Z,10.03
2017-08-15T20:24:54.956Z,9.00
2017-08-15T20:27:22.512Z,7.30
2017-08-15T20:29:50.085Z,7.93
2017-08-15T20:32:17.617Z,9.27
2017-08-15T20:34:45.197Z,9.33
2017-08-15T20:37:12.802Z,11.67
2017-08-15T20:39:40.807Z,12.00
2017-08-15T20:42:08.359Z,12.23
2017-08-15T20:44:35.917Z,8.17
2017-08-15T20:47:03.536Z,10.70
2017-08-15T20:49:31.169Z,10.13
2017-08-15T20:51:58.779Z,13.90
2017-08-15T20:54:26.428Z,11.33
2017-08-15T20:56:54.026Z,7.70
2017-08-15T20:59:21.629Z,7.23
2017-08-15T21:01:49.343Z,8.03
2017-08-15T21:04:16.988Z,5.77
2017-08-15T21:06:44.555Z,8.07
2017-08-15T21:09:12.110Z,11.23
2017-08-15T21:11:39.681Z,9.30
2017-08-15T21:14:07.290Z,9.73
2017-08-15T21:16:34.866Z,5.30
2017-08-15T21:19:02.443Z,4.70
2017-08-15T21:21:30.032Z,5.50
2017-08-15T21:23:57.613Z,5.40
2017-08-15T21:26:25.423Z,6.70
2017-08-15T21:28:53.004Z,7.17
2017-08-15T21:31:20.609Z,5.67
2017-08-15T21:33:48.206Z,4.63
2017-08-15T21:36:17.071Z,6.00
2017-08-15T21:38:44.621Z,7.03
2017-08-15T21:41:12.172Z,6.30
2017-08-15T21:43:42.481Z,5.83
2017-08-15T21:46:10.094Z,5.07
2017-08-15T21:48:37.721Z,5.60
2017-08-15T21:51:05.280Z,5.53
2017-08-15T21:53:33.677Z,6.53
2017-08-15T21:56:01.250Z,6.70
2017-08-15T21:58:30.014Z,6.27
2017-08-15T22:01:03.127Z,6.27
2017-08-15T22:03:30.664Z,5.63
2017-08-15T22:05:58.313Z,6.80
2017-08-15T22:08:25.906Z,5.40
2017-08-15T22:10:53.462Z,6.30
2017-08-15T22:13:21.515Z,6.77
2017-08-15T22:15:49.079Z,6.20
2017-08-15T22:18:16.633Z,6.27
2017-08-15T22:20:44.194Z,7.03
2017-08-15T22:23:12.340Z,5.40
2017-08-15T22:25:39.947Z,5.77
2017-08-15T22:28:07.502Z,6.20
2017-08-15T22:30:35.063Z,6.37
2017-08-15T22:33:02.617Z,6.37
2017-08-15T22:35:30.160Z,5.90
2017-08-15T22:37:57.722Z,5.60
2017-08-15T22:40:25.281Z,6.60
2017-08-15T22:42:52.846Z,5.40
2017-08-15T22:45:20.414Z,6.00
2017-08-15T22:47:47.955Z,6.63
2017-08-15T22:50:15.515Z,8.43
2017-08-15T22:52:43.100Z,7.07
2017-08-15T22:55:10.728Z,5.90
2017-08-15T22:57:38.286Z,7.33
2017-08-15T23:00:05.858Z,6.33
2017-08-15T23:02:33.413Z,6.00
2017-08-15T23:05:00.987Z,7.40
2017-08-15T23:07:28.531Z,8.00
2017-08-15T23:09:56.107Z,8.70
2017-08-15T23:12:23.691Z,6.50
2017-08-15T23:14:51.357Z,5.77
2017-08-15T23:17:20.054Z,6.87
2017-08-15T23:19:47.615Z,7.73
2017-08-15T23:22:15.210Z,6.13
2017-08-15T23:24:42.789Z,6.73
2017-08-15T23:27:10.396Z,6.80
2017-08-15T23:29:37.944Z,6.67
2017-08-15T23:32:05.526Z,7.13
2017-08-15T23:34:34.046Z,7.23
2017-08-15T23:37:01.615Z,6.10
2017-08-15T23:39:29.195Z,6.30
2017-08-15T23:41:57.135Z,5.57
2017-08-15T23:44:24.690Z,6.83
2017-08-15T23:46:52.262Z,6.03
2017-08-15T23:49:19.813Z,5.77
2017-08-15T23:51:47.372Z,5.90
2017-08-15T23:54:15.749Z,5.40
2017-08-15T23:56:44.205Z,5.70
2017-08-15T23:59:11.753Z,5.70
